Time;durP1;ratioP1;P1;durP2;ratioP2;P2;SDS_P1;SDS_P2;PMS_P1;PMS_P2;Temp;Humidity;BMP_temperature;BMP_pressure;BME280_temperature;BME280_humidity;BME280_pressure;Samples;Min_cycle;Max_cycle;Signal;HPM_P1;HPM_P2
2021/04/04 00:01:33;;;;;;;0.80;0.70;;;4.20;99.90;;;4.34;100.00;34879.16;4977248;28;20184;-69
2021/04/04 00:04:01;;;;;;;0.90;0.90;;;4.20;99.90;;;4.21;100.00;33796.94;4976763;28;20545;-68
2021/04/04 00:06:28;;;;;;;0.80;0.70;;;4.00;99.90;;;4.12;100.00;33952.59;4976805;28;20628;-69
2021/04/04 00:08:55;;;;;;;0.80;0.70;;;4.00;99.90;;;4.09;100.00;34717.19;4989848;28;20203;-67
2021/04/04 00:11:23;;;;;;;0.80;0.70;;;4.00;99.90;;;4.01;100.00;35059.53;4974225;28;20211;-69
2021/04/04 00:13:50;;;;;;;0.80;0.75;;;3.80;99.90;;;3.96;100.00;36039.34;4975337;28;20196;-68
2021/04/04 00:16:17;;;;;;;0.80;0.80;;;3.80;99.90;;;3.87;100.00;36164.78;4974463;28;20189;-68
2021/04/04 00:18:44;;;;;;;0.70;0.60;;;3.80;99.90;;;3.95;100.00;37813.91;4974352;28;20200;-68
2021/04/04 00:21:11;;;;;;;0.80;0.60;;;3.80;99.90;;;3.97;100.00;38183.94;4974625;28;20651;-68
2021/04/04 00:23:38;;;;;;;0.90;0.90;;;3.80;99.90;;;3.88;100.00;38498.34;4973550;28;20207;-69
2021/04/04 00:26:05;;;;;;;0.80;0.70;;;3.70;99.90;;;4.01;100.00;39569.16;4974597;28;20278;-68
2021/04/04 00:28:33;;;;;;;0.80;0.70;;;3.80;99.90;;;4.15;100.00;40705.03;4974181;28;20220;-68
2021/04/04 00:31:01;;;;;;;0.70;0.60;;;4.00;99.90;;;4.11;100.00;39470.38;4973469;28;20204;-69
2021/04/04 00:33:28;;;;;;;0.80;0.70;;;3.90;99.90;;;4.01;100.00;38345.31;4973977;28;20271;-68
2021/04/04 00:35:57;;;;;;;1.00;0.90;;;3.80;99.90;;;3.91;100.00;37917.06;4974959;28;20189;-68
2021/04/04 00:38:24;;;;;;;0.80;0.70;;;3.80;99.90;;;3.90;100.00;38441.03;4959207;28;20211;-68
2021/04/04 00:40:51;;;;;;;0.80;0.63;;;3.80;99.90;;;3.87;100.00;38873.50;4988957;28;20191;-69
2021/04/04 00:43:18;;;;;;;0.77;0.63;;;3.80;99.90;;;3.86;100.00;38981.28;4993883;28;20208;-67
2021/04/04 00:45:46;;;;;;;0.70;0.70;;;3.80;99.90;;;3.81;100.00;38651.97;4991051;28;20196;-68
2021/04/04 00:48:13;;;;;;;0.70;0.70;;;3.70;99.90;;;3.72;100.00;38640.91;4976552;28;20180;-68
2021/04/04 00:50:40;;;;;;;0.80;0.70;;;3.60;99.90;;;3.67;100.00;38955.13;4974805;28;20239;-68
2021/04/04 00:53:09;;;;;;;0.80;0.80;;;3.50;99.90;;;3.70;100.00;39628.22;4976332;28;20223;-68
2021/04/04 00:55:36;;;;;;;0.85;0.85;;;3.60;99.90;;;3.67;100.00;40216.38;4975910;28;20279;-67
2021/04/04 00:58:04;;;;;;;0.80;0.68;;;3.40;99.90;;;3.59;100.00;40720.13;4956913;28;20240;-67
2021/04/04 01:00:34;;;;;;;0.80;0.70;;;3.30;99.90;;;3.58;100.00;41312.34;4964336;28;20188;-67
2021/04/04 01:03:03;;;;;;;0.77;0.60;;;3.40;99.90;;;3.79;100.00;43057.72;4972779;28;20561;-68
2021/04/04 01:05:38;;;;;;;0.75;0.70;;;3.70;99.90;;;3.88;100.00;43082.44;4975031;28;20521;-68
2021/04/04 01:08:07;;;;;;;0.77;0.60;;;3.70;99.90;;;4.10;100.00;43379.34;4975735;28;20195;-68
2021/04/04 01:10:37;;;;;;;0.80;0.70;;;3.80;99.90;;;4.32;100.00;42097.13;4974860;28;20208;-68
2021/04/04 01:13:18;;;;;;;0.70;0.60;;;4.00;99.90;;;4.46;100.00;38542.88;4975720;28;20708;-67
2021/04/04 01:15:53;;;;;;;0.70;0.70;;;4.10;99.90;;;4.57;100.00;35486.22;4974685;28;20187;-68
2021/04/04 01:18:30;;;;;;;0.80;0.80;;;4.20;99.90;;;4.74;100.00;32104.53;4976192;28;20616;-68
2021/04/04 01:21:05;;;;;;;0.80;0.60;;;4.30;99.90;;;4.78;100.00;28019.72;4976037;28;20254;-68
2021/04/04 01:24:20;;;;;;;0.70;0.60;;;4.30;99.90;;;4.85;100.00;24028.75;4960079;28;20184;-68
2021/04/04 01:26:58;;;;;;;0.70;0.60;;;4.40;99.90;;;4.95;100.00;18597.81;4953009;28;20581;-68
2021/04/04 01:29:29;;;;;;;0.70;0.60;;;4.40;99.90;;;4.94;100.00;13256.75;4990850;28;20239;-68
2021/04/04 01:31:57;;;;;;;0.70;0.60;;;4.40;99.90;;;5.09;100.00;9630.69;4975022;28;20228;-68
2021/04/04 01:34:27;;;;;;;0.70;0.60;;;4.40;99.90;;;5.08;100.00;4403.00;4974459;28;20192;-68
2021/04/04 01:37:00;;;;;;;0.70;0.60;;;4.50;99.90;;;5.01;100.00;1374.28;4975164;28;20228;-68
2021/04/04 01:39:37;;;;;;;0.70;0.60;;;4.50;99.90;;;5.11;100.00;-1418.09;4990554;28;20184;-68
2021/04/04 01:42:08;;;;;;;0.70;0.60;;;4.50;99.90;;;5.20;100.00;-5129.66;4973854;28;20208;-68
2021/04/04 01:44:40;;;;;;;0.77;0.70;;;4.50;99.90;;;5.18;100.00;-7359.16;4974524;28;20549;-68
2021/04/04 01:47:09;;;;;;;0.70;0.60;;;4.60;99.90;;;5.15;100.00;-8984.03;4980520;28;20226;-68
2021/04/04 01:49:39;;;;;;;0.80;0.68;;;4.60;99.90;;;5.15;100.00;-9564.53;4975381;28;20235;-67
2021/04/04 01:52:07;;;;;;;0.70;0.60;;;4.60;99.90;;;5.23;100.00;-8708.03;4974821;28;20558;-68
2021/04/04 01:54:35;;;;;;;0.80;0.70;;;4.50;99.90;;;5.17;100.00;-10005.66;4975373;28;20243;-68
2021/04/04 01:57:04;;;;;;;0.70;0.60;;;4.50;99.90;;;5.35;100.00;-9980.03;4973618;28;20223;-68
2021/04/04 01:59:34;;;;;;;0.75;0.70;;;4.50;99.90;;;5.23;100.00;-11702.38;4975103;28;20207;-68
2021/04/04 02:02:05;;;;;;;0.75;0.60;;;4.50;99.90;;;5.20;100.00;-10999.72;4974251;28;20194;-68
2021/04/04 02:04:33;;;;;;;0.70;0.60;;;4.50;99.90;;;5.18;100.00;-9701.84;4975095;28;20193;-68
2021/04/04 02:07:01;;;;;;;0.80;0.70;;;4.40;99.90;;;5.17;100.00;-10486.41;4973770;28;20219;-69
2021/04/04 02:09:30;;;;;;;0.70;0.60;;;4.40;99.90;;;5.13;100.00;-7266.69;4990067;28;20200;-68
2021/04/04 02:11:58;;;;;;;0.70;0.60;;;4.40;99.90;;;5.03;100.00;-6600.56;4973850;28;20230;-68
2021/04/04 02:14:25;;;;;;;0.80;0.70;;;4.30;99.90;;;4.98;100.00;-3425.41;4973769;28;20243;-68
2021/04/04 02:16:56;;;;;;;0.80;0.80;;;4.40;99.90;;;5.11;100.00;-963.53;4974888;28;20196;-68
2021/04/04 02:19:27;;;;;;;0.80;0.65;;;4.40;99.90;;;5.23;100.00;-1887.16;4975088;28;20191;-68
2021/04/04 02:21:58;;;;;;;0.80;0.70;;;4.40;99.90;;;5.33;100.00;-4291.38;4974458;28;20187;-67
2021/04/04 02:24:28;;;;;;;0.70;0.60;;;4.40;99.90;;;5.24;100.00;-6194.94;4974887;28;20183;-67
2021/04/04 02:26:56;;;;;;;0.70;0.60;;;4.40;99.90;;;5.24;100.00;-7177.50;4974415;28;20212;-68
2021/04/04 02:29:23;;;;;;;0.73;0.70;;;4.40;99.90;;;5.17;100.00;-4752.88;4974793;28;20192;-68
2021/04/04 02:31:56;;;;;;;0.73;0.60;;;4.40;99.90;;;5.36;100.00;-6205.34;4974350;28;20693;-68
2021/04/04 02:34:32;;;;;;;0.70;0.70;;;4.40;99.90;;;5.21;100.00;-8398.84;4974713;28;20188;-68
2021/04/04 02:37:00;;;;;;;0.75;0.70;;;4.40;99.90;;;5.20;100.00;-7805.56;4974580;28;20664;-68
2021/04/04 02:39:33;;;;;;;0.70;0.70;;;4.40;99.90;;;5.15;100.00;-7730.47;4974595;28;20189;-68
2021/04/04 02:42:03;;;;;;;0.70;0.60;;;4.40;99.90;;;5.15;100.00;-6970.09;4974520;28;20200;-68
2021/04/04 02:44:31;;;;;;;0.80;0.70;;;4.40;99.90;;;5.16;100.00;-6339.28;4974832;28;20188;-68
2021/04/04 02:47:05;;;;;;;0.80;0.70;;;4.40;99.90;;;5.11;100.00;-7361.25;4974436;28;20176;-67
2021/04/04 02:49:36;;;;;;;0.70;0.60;;;4.40;99.90;;;5.26;100.00;-8730.75;4973346;28;20193;-67
2021/04/04 02:52:09;;;;;;;0.70;0.60;;;4.50;99.90;;;5.32;100.00;-9875.06;4973812;28;20196;-68
2021/04/04 02:54:40;;;;;;;0.80;0.75;;;4.50;99.90;;;5.26;100.00;-12235.53;4974735;28;20267;-68
2021/04/04 02:57:08;;;;;;;0.82;0.82;;;4.50;99.90;;;5.36;100.00;-13143.06;4974105;28;20274;-68
2021/04/04 02:59:41;;;;;;;0.80;0.70;;;4.50;99.90;;;5.40;100.00;-16510.25;4974418;28;20263;-68
2021/04/04 03:02:14;;;;;;;0.80;0.70;;;4.50;99.90;;;5.45;100.00;-18095.34;4972761;28;20188;-68
2021/04/04 03:04:43;;;;;;;0.77;0.70;;;4.50;99.90;;;5.47;100.00;-18993.00;4972637;28;20208;-68
2021/04/04 03:07:14;;;;;;;0.80;0.70;;;4.50;99.90;;;5.30;100.00;-19518.09;4972737;28;20192;-68
2021/04/04 03:09:47;;;;;;;0.80;0.63;;;4.50;99.90;;;5.30;100.00;-18022.34;4973090;28;20184;-68
2021/04/04 03:12:15;;;;;;;0.77;0.68;;;4.50;99.90;;;5.30;100.00;-17686.81;4974116;28;20667;-68
2021/04/04 03:14:43;;;;;;;0.70;0.60;;;4.50;99.90;;;5.39;100.00;-18362.25;4974290;28;20192;-68
2021/04/04 03:17:12;;;;;;;0.70;0.70;;;4.50;99.90;;;5.50;100.00;-18419.56;4974020;28;20176;-67
2021/04/04 03:19:40;;;;;;;0.70;0.60;;;4.50;99.90;;;5.48;100.00;-18918.69;4972948;28;20291;-68
2021/04/04 03:22:09;;;;;;;0.80;0.70;;;4.50;99.90;;;5.48;100.00;-19388.41;4973728;28;20267;-69
2021/04/04 03:24:37;;;;;;;0.80;0.70;;;4.50;99.90;;;5.48;100.00;-19308.88;4973801;28;20666;-67
2021/04/04 03:27:07;;;;;;;0.80;0.60;;;4.50;99.90;;;5.37;100.00;-19800.63;4977647;28;20235;-67
2021/04/04 03:29:35;;;;;;;0.70;0.60;;;4.50;99.90;;;5.28;100.00;-17830.50;4978050;28;20268;-68
2021/04/04 03:32:02;;;;;;;0.80;0.70;;;4.50;99.90;;;5.39;100.00;-14109.31;4980632;28;20299;-68
2021/04/04 03:34:30;;;;;;;0.70;0.60;;;4.40;99.90;;;5.26;100.00;-12723.47;4992174;28;20235;-68
2021/04/04 03:36:58;;;;;;;0.70;0.60;;;4.50;99.90;;;5.21;100.00;-10265.16;4977602;28;20192;-68
2021/04/04 03:39:27;;;;;;;0.70;0.60;;;4.40;99.90;;;5.15;100.00;-5491.28;4977402;28;20574;-68
2021/04/04 03:41:59;;;;;;;0.70;0.60;;;4.40;99.90;;;5.16;100.00;-728.50;4977812;28;20275;-67
2021/04/04 03:44:30;;;;;;;0.80;0.70;;;4.40;99.90;;;5.33;100.00;92.06;4977997;28;20656;-66
2021/04/04 03:46:58;;;;;;;0.70;0.60;;;4.40;99.90;;;5.22;100.00;-4718.00;4975754;28;20535;-67
2021/04/04 03:49:26;;;;;;;0.80;0.68;;;4.40;99.90;;;5.28;100.00;-6728.84;4977747;28;20279;-67
2021/04/04 03:51:55;;;;;;;0.73;0.65;;;4.40;99.90;;;5.37;100.00;-7898.84;4977477;28;20642;-67
2021/04/04 03:54:23;;;;;;;0.77;0.70;;;4.40;99.90;;;5.52;100.00;-13314.81;4977561;28;20192;-67
2021/04/04 03:56:54;;;;;;;0.70;0.60;;;4.50;99.90;;;5.65;100.00;-16809.00;4976424;28;20310;-67
2021/04/04 03:59:23;;;;;;;0.70;0.60;;;4.50;99.90;;;5.50;100.00;-19985.28;4976979;28;20193;-68
2021/04/04 04:01:52;;;;;;;0.70;0.70;;;4.50;99.90;;;5.48;100.00;-20397.19;4976924;28;20704;-67
2021/04/04 04:04:20;;;;;;;0.70;0.60;;;4.50;99.90;;;5.53;100.00;-20756.28;4977497;28;20244;-67
2021/04/04 04:06:49;;;;;;;0.80;0.70;;;4.50;99.90;;;5.36;100.00;-20828.06;4977254;28;20200;-68
2021/04/04 04:09:18;;;;;;;0.70;0.60;;;4.50;99.90;;;5.33;100.00;-20708.78;4976953;28;20200;-67
2021/04/04 04:11:48;;;;;;;0.80;0.65;;;4.40;99.90;;;5.20;100.00;-19510.69;4975908;28;20223;-67
2021/04/04 04:14:19;;;;;;;0.77;0.68;;;4.40;99.90;;;5.19;100.00;-17140.00;4977250;28;20307;-67
2021/04/04 04:16:47;;;;;;;0.70;0.60;;;4.40;99.90;;;5.26;100.00;-15430.75;4977116;28;20538;-67
2021/04/04 04:19:16;;;;;;;0.70;0.60;;;4.50;99.90;;;5.28;100.00;-16336.41;4975930;28;20571;-68
2021/04/04 04:21:43;;;;;;;0.80;0.80;;;4.40;99.90;;;5.33;100.00;-15260.44;4976996;28;20192;-68
2021/04/04 04:24:13;;;;;;;0.70;0.68;;;4.40;99.90;;;5.35;100.00;-15584.13;4976298;28;20255;-68
2021/04/04 04:26:44;;;;;;;0.70;0.60;;;4.40;99.90;;;5.14;100.00;-13314.06;4975777;28;20219;-67
2021/04/04 04:29:12;;;;;;;0.70;0.60;;;4.40;99.90;;;5.16;100.00;-9993.06;4977017;28;20203;-67
2021/04/04 04:31:43;;;;;;;0.70;0.60;;;4.40;99.90;;;5.13;100.00;-8555.28;4976512;28;20727;-66
2021/04/04 04:34:12;;;;;;;0.80;0.70;;;4.40;99.90;;;5.36;100.00;-9591.38;4976996;28;20231;-68
2021/04/04 04:36:41;;;;;;;0.80;0.65;;;4.40;99.90;;;5.32;100.00;-12878.75;4975240;28;20208;-67
2021/04/04 04:39:10;;;;;;;0.80;0.70;;;4.40;99.90;;;5.42;100.00;-14060.03;4973269;28;20196;-66
2021/04/04 04:41:49;;;;;;;0.80;0.70;;;4.40;99.90;;;5.51;100.00;-17539.66;4976411;28;20200;-66
2021/04/04 04:44:21;;;;;;;0.70;0.60;;;4.40;99.90;;;5.21;100.00;-17617.66;4977220;28;20184;-66
2021/04/04 04:46:50;;;;;;;0.80;0.70;;;4.40;99.90;;;5.22;100.00;-14987.28;4976510;28;20185;-68
2021/04/04 04:49:17;;;;;;;0.70;0.68;;;4.40;99.90;;;5.39;100.00;-14134.19;4976720;28;20177;-69
2021/04/04 04:51:46;;;;;;;0.75;0.70;;;4.40;99.90;;;5.19;100.00;-13902.00;4976031;28;20212;-67
2021/04/04 04:54:14;;;;;;;0.70;0.60;;;4.40;99.90;;;5.24;100.00;-11824.50;4975877;28;20200;-67
2021/04/04 04:56:43;;;;;;;0.80;0.70;;;4.40;99.90;;;5.16;100.00;-9738.97;4976498;28;20307;-67
2021/04/04 04:59:11;;;;;;;0.77;0.70;;;4.40;99.90;;;5.16;100.00;-7049.94;4976377;28;20172;-67
2021/04/04 05:01:42;;;;;;;0.70;0.63;;;4.40;99.90;;;5.39;100.00;-5536.81;4973839;28;20193;-67
2021/04/04 05:04:10;;;;;;;0.70;0.60;;;4.40;99.90;;;5.45;100.00;-8704.78;4976242;28;20180;-67
2021/04/04 05:06:38;;;;;;;0.70;0.70;;;4.50;99.90;;;5.45;100.00;-12504.53;4974495;28;20207;-67
2021/04/04 05:09:07;;;;;;;0.80;0.77;;;4.50;99.90;;;5.29;100.00;-10559.88;4976233;28;20263;-67
2021/04/04 05:11:39;;;;;;;0.70;0.60;;;4.50;99.90;;;5.29;100.00;-7013.22;4974912;28;20223;-67
2021/04/04 05:14:10;;;;;;;3.95;1.50;;;4.50;99.90;;;5.41;100.00;-5986.00;4975729;28;20188;-67
2021/04/04 05:16:37;;;;;;;0.70;0.60;;;4.50;99.90;;;5.44;100.00;-6422.69;4975701;28;20185;-69
2021/04/04 05:19:08;;;;;;;0.80;0.73;;;4.50;99.90;;;5.46;100.00;-6547.53;4976432;28;20551;-67
2021/04/04 05:21:38;;;;;;;0.77;0.70;;;4.50;99.90;;;5.41;100.00;-4528.56;4974606;28;20192;-67
2021/04/04 05:24:08;;;;;;;0.70;0.60;;;4.50;99.90;;;5.28;100.00;-1767.09;4975119;28;20200;-67
2021/04/04 05:26:38;;;;;;;0.80;0.70;;;4.50;99.90;;;5.43;100.00;1312.81;4976040;28;20176;-67
2021/04/04 05:29:07;;;;;;;0.80;0.70;;;4.50;99.90;;;5.36;100.00;1742.28;4976003;28;20180;-67
2021/04/04 05:31:44;;;;;;;0.70;0.60;;;4.60;99.90;;;5.47;100.00;3627.31;4974108;28;20263;-67
2021/04/04 05:34:13;;;;;;;0.80;0.65;;;4.60;99.90;;;5.36;100.00;3140.56;4975382;28;20239;-67
2021/04/04 05:36:50;;;;;;;0.70;0.60;;;4.60;99.90;;;5.61;100.00;5990.34;4975413;28;20192;-66
2021/04/04 05:39:19;;;;;;;0.70;0.60;;;4.60;99.90;;;5.66;100.00;-383.38;4975543;28;20216;-68
2021/04/04 05:41:51;;;;;;;0.70;0.60;;;4.60;99.90;;;5.55;100.00;-3944.41;4975613;28;20204;-68
2021/04/04 05:44:25;;;;;;;1.25;1.15;;;4.60;99.90;;;5.54;100.00;-4179.13;4975603;28;20176;-68
2021/04/04 05:46:59;;;;;;;0.70;0.60;;;4.60;99.90;;;5.52;100.00;-3804.56;4975075;28;20180;-67
2021/04/04 05:49:50;;;;;;;0.70;0.60;;;4.70;99.90;;;5.62;100.00;-3090.19;4975232;28;20236;-67
2021/04/04 05:52:28;;;;;;;0.80;0.70;;;4.70;99.90;;;5.80;100.00;-5208.25;4973768;28;20212;-67
2021/04/04 05:55:21;;;;;;;0.80;0.70;;;4.70;99.90;;;5.67;100.00;-9918.34;4975375;28;20568;-66
2021/04/04 05:57:55;;;;;;;0.70;0.60;;;4.70;99.90;;;5.80;100.00;-12417.28;4973834;28;20228;-68
2021/04/04 06:00:28;;;;;;;0.80;0.70;;;4.70;99.90;;;5.74;100.00;-13714.16;4974920;28;20184;-69
2021/04/04 06:03:52;;;;;;;0.70;0.60;;;4.70;99.90;;;5.84;100.00;-13703.31;4975072;28;20189;-68
2021/04/04 06:06:54;;;;;;;0.70;0.60;;;4.70;99.90;;;6.00;100.00;-15339.84;4974835;28;20649;-69
2021/04/04 06:09:53;;;;;;;0.70;0.70;;;4.70;99.90;;;5.87;100.00;-17681.88;4974449;28;20188;-69
2021/04/04 06:12:36;;;;;;;0.70;0.60;;;4.80;99.90;;;5.91;100.00;-17170.19;4974696;28;20216;-67
2021/04/04 06:15:19;;;;;;;0.70;0.60;;;4.80;99.90;;;5.88;100.00;-15890.34;4975100;28;20176;-66
2021/04/04 06:17:57;;;;;;;0.77;0.70;;;4.90;99.90;;;6.08;100.00;-15460.88;4974329;28;20191;-67
2021/04/04 06:20:41;;;;;;;0.80;0.60;;;4.80;99.90;;;6.01;100.00;-17918.94;4973676;28;20191;-68
2021/04/04 06:23:20;;;;;;;0.70;0.60;;;4.80;99.90;;;6.01;100.00;-18588.34;4975231;28;21331;-68
2021/04/04 06:26:05;;;;;;;0.73;0.60;;;4.90;99.90;;;5.81;100.00;-16187.75;4981440;28;20203;-67
2021/04/04 06:28:52;;;;;;;0.80;0.70;;;4.90;99.90;;;5.99;100.00;-16355.50;4994241;28;20707;-67
2021/04/04 06:31:29;;;;;;;0.70;0.60;;;4.90;99.90;;;6.19;100.00;-16698.13;4979806;28;20212;-68
2021/04/04 06:34:08;;;;;;;0.80;0.60;;;5.00;99.90;;;6.18;100.00;-16745.22;4974667;28;20188;-67
2021/04/04 06:36:45;;;;;;;0.80;0.70;;;5.00;99.90;;;6.22;100.00;-16987.72;4974464;28;20516;-68
2021/04/04 06:39:44;;;;;;;0.70;0.70;;;5.00;99.90;;;6.34;100.00;-16581.72;4972991;28;20188;-68
2021/04/04 06:42:17;;;;;;;1.02;0.93;;;5.10;99.90;;;6.34;100.00;-17214.19;4974403;28;20294;-67
2021/04/04 06:45:04;;;;;;;0.70;0.57;;;5.10;99.90;;;6.38;100.00;-15356.84;4974962;28;20187;-67
2021/04/04 06:47:45;;;;;;;0.77;0.70;;;5.20;99.90;;;6.44;100.00;-18581.06;4974516;28;20181;-68
2021/04/04 06:50:17;;;;;;;0.73;0.60;;;5.20;99.90;;;6.51;100.00;-19055.66;4953945;29;20185;-67
2021/04/04 06:53:02;;;;;;;0.70;0.60;;;5.20;99.90;;;6.67;100.00;-20829.59;4956130;28;20207;-67
2021/04/04 06:55:43;;;;;;;0.70;0.60;;;5.20;99.90;;;6.79;100.00;-20867.03;4965940;28;20192;-66
2021/04/04 06:58:22;;;;;;;0.70;0.60;;;5.20;99.90;;;6.67;100.00;-20863.81;4973832;28;20583;-67
2021/04/04 07:01:07;;;;;;;0.70;0.60;;;5.30;99.90;;;6.71;100.00;-20864.78;4967398;28;20218;-68
2021/04/04 07:03:46;;;;;;;0.70;0.60;;;5.30;99.90;;;6.84;100.00;-20868.28;4955230;29;20184;-67
2021/04/04 07:06:54;;;;;;;0.70;0.60;;;5.40;99.90;;;6.94;100.00;-20871.06;4955050;28;20185;-67
2021/04/04 07:09:55;;;;;;;0.80;0.70;;;5.50;99.90;;;7.00;100.00;-20872.72;4966217;28;20235;-67
2021/04/04 07:12:44;;;;;;;0.70;0.60;;;5.40;99.90;;;6.79;100.00;-20867.03;4974231;28;20576;-66
2021/04/04 07:15:31;;;;;;;0.70;0.60;;;5.50;99.90;;;6.92;100.00;-20870.63;4974080;28;20191;-67
2021/04/04 07:18:34;;;;;;;0.70;0.60;;;5.60;99.90;;;7.28;100.00;-20880.34;4972875;28;20242;-67
2021/04/04 07:21:39;;;;;;;0.70;0.70;;;5.50;99.90;;;7.05;100.00;-20874.09;4974110;28;20195;-68
2021/04/04 07:24:19;;;;;;;0.73;0.65;;;5.60;99.90;;;7.10;100.00;-20875.50;4972958;28;20185;-67
2021/04/04 07:27:02;;;;;;;0.70;0.60;;;5.60;99.90;;;7.00;100.00;-20872.72;4974281;28;20213;-67
2021/04/04 07:29:48;;;;;;;0.70;0.70;;;5.70;99.90;;;7.16;100.00;-20877.16;4974442;28;20185;-66
2021/04/04 07:32:21;;;;;;;0.80;0.70;;;5.70;99.90;;;7.11;100.00;-20875.78;4971727;28;20260;-68
2021/04/04 07:34:58;;;;;;;0.70;0.60;;;5.70;99.90;;;7.04;100.00;-20873.81;4973068;28;20194;-68
2021/04/04 07:37:39;;;;;;;0.70;0.60;;;5.70;99.90;;;7.22;100.00;-20878.69;4971694;28;20597;-68
2021/04/04 07:40:14;;;;;;;0.70;0.60;;;5.70;99.90;;;7.19;100.00;-20878.00;4954741;28;20620;-67
2021/04/04 07:43:00;;;;;;;0.70;0.60;;;5.70;99.90;;;7.17;100.00;-20877.28;4954910;28;20204;-69
2021/04/04 07:45:37;;;;;;;0.70;0.60;;;5.80;99.90;;;7.28;100.00;-20880.22;4954785;29;20537;-68
2021/04/04 07:48:22;;;;;;;0.70;0.60;;;5.90;99.90;;;7.43;100.00;-20884.38;4973313;28;20660;-67
2021/04/04 07:51:00;;;;;;;0.70;0.60;;;5.90;99.90;;;7.60;100.00;-20889.09;4973842;28;20199;-69
2021/04/04 07:53:40;;;;;;;0.70;0.60;;;5.80;99.90;;;7.23;100.00;-20879.09;4974041;28;20594;-68
2021/04/04 07:56:18;;;;;;;0.70;0.60;;;6.00;99.90;;;7.44;100.00;-20884.81;4973870;28;20192;-67
2021/04/04 07:58:57;;;;;;;0.70;0.65;;;6.00;99.90;;;7.48;100.00;-20885.78;4973956;28;20177;-66
2021/04/04 08:01:37;;;;;;;0.70;0.60;;;5.90;99.90;;;7.63;100.00;-20889.78;4973269;28;20198;-68
2021/04/04 08:04:12;;;;;;;0.70;0.60;;;6.00;99.90;;;7.70;100.00;-20891.88;4972765;28;20188;-68
2021/04/04 08:06:45;;;;;;;0.70;0.60;;;6.00;99.90;;;7.81;100.00;-20894.66;4969838;28;20191;-68
2021/04/04 08:09:23;;;;;;;0.70;0.60;;;6.10;99.90;;;7.83;100.00;-20895.22;4972509;28;20694;-68
2021/04/04 08:12:01;;;;;;;0.70;0.67;;;6.10;99.90;;;7.79;100.00;-20894.25;4975334;28;20689;-68
2021/04/04 08:14:37;;;;;;;0.70;0.60;;;6.20;99.90;;;7.94;100.00;-20898.41;4974019;28;21324;-66
2021/04/04 08:17:05;;;;;;;0.70;0.60;;;6.20;99.90;;;7.75;100.00;-20893.13;4975988;28;20193;-66
2021/04/04 08:19:34;;;;;;;0.70;0.60;;;6.30;99.90;;;8.23;100.00;-20906.31;4975247;28;20177;-67
2021/04/04 08:22:08;;;;;;;0.70;0.60;;;6.30;99.90;;;7.98;100.00;-20899.50;4975101;28;20184;-67
2021/04/04 08:24:44;;;;;;;0.70;0.60;;;6.40;99.90;;;7.79;100.00;-20894.25;4976383;28;20439;-67
2021/04/04 08:27:29;;;;;;;0.70;0.60;;;6.40;99.90;;;8.08;100.00;-20902.00;4976644;28;20473;-68
2021/04/04 08:30:06;;;;;;;0.70;0.60;;;6.30;99.90;;;8.01;100.00;-20900.06;4976132;28;20180;-68
2021/04/04 08:32:43;;;;;;;0.70;0.60;;;6.40;99.90;;;8.20;100.00;-20905.47;4975747;28;20288;-66
2021/04/04 08:35:15;;;;;;;0.70;0.60;;;6.40;99.90;;;7.99;100.00;-20899.66;4975802;28;20974;-67
2021/04/04 08:37:50;;;;;;;0.80;0.80;;;6.40;99.90;;;8.33;100.00;-20908.94;4974204;28;20438;-66
2021/04/04 08:40:19;;;;;;;0.70;0.60;;;6.30;99.90;;;8.26;100.00;-20907.00;4976467;28;20923;-69
2021/04/04 08:42:49;;;;;;;0.70;0.60;;;6.20;99.90;;;8.08;100.00;-20902.00;4976865;28;20544;-69
2021/04/04 08:45:23;;;;;;;1.00;0.93;;;6.30;99.90;;;8.13;100.00;-20903.53;4976354;28;20664;-68
2021/04/04 08:47:52;;;;;;;0.70;0.60;;;6.40;99.90;;;8.19;100.00;-20905.19;4976443;28;20183;-68
2021/04/04 08:50:22;;;;;;;0.70;0.60;;;6.50;99.90;;;7.95;100.00;-20898.69;4973631;28;20912;-67
2021/04/04 08:52:54;;;;;;;0.70;0.50;;;6.50;99.90;;;8.05;100.00;-20901.31;4975510;28;20487;-69
2021/04/04 08:55:25;;;;;;;0.70;0.60;;;6.50;99.90;;;8.01;100.00;-20900.19;5007334;28;20482;-68
2021/04/04 08:57:55;;;;;;;0.70;0.60;;;6.50;99.90;;;8.07;100.00;-20901.88;4974318;28;21001;-69
2021/04/04 09:00:26;;;;;;;0.70;0.60;;;6.40;99.90;;;8.09;100.00;-20902.41;4975007;28;20463;-69
2021/04/04 09:03:04;;;;;;;0.70;0.60;;;6.50;99.90;;;8.34;100.00;-20909.09;4973294;28;20439;-69
2021/04/04 09:05:36;;;;;;;0.80;0.60;;;6.50;99.90;;;8.22;100.00;-20906.03;4975664;28;20593;-68
2021/04/04 09:08:05;;;;;;;0.70;0.60;;;6.40;99.90;;;8.26;100.00;-20906.88;4975251;28;20436;-68
2021/04/04 09:10:36;;;;;;;1.10;1.00;;;6.40;99.90;;;8.33;100.00;-20908.81;4975120;28;20432;-67
2021/04/04 09:13:07;;;;;;;0.70;0.60;;;6.40;99.90;;;8.17;100.00;-20904.66;4975714;28;20493;-67
2021/04/04 09:15:47;;;;;;;0.70;0.60;;;6.50;99.90;;;8.16;100.00;-20904.22;4973789;28;20790;-67
2021/04/04 09:18:16;;;;;;;0.70;0.60;;;6.40;99.90;;;8.14;100.00;-20903.69;5011061;28;20440;-69
2021/04/04 09:20:44;;;;;;;0.70;0.50;;;6.40;99.90;;;8.19;100.00;-20905.19;4973754;28;20442;-67
2021/04/04 09:23:14;;;;;;;0.70;0.60;;;6.40;99.90;;;8.30;100.00;-20907.97;4974917;28;20462;-68
2021/04/04 09:25:52;;;;;;;3.55;1.45;;;6.50;99.90;;;7.98;100.00;-20899.38;4975188;28;20945;-67
2021/04/04 09:28:21;;;;;;;0.80;0.63;;;6.40;99.90;;;7.78;100.00;-20893.81;4975253;28;20711;-67
2021/04/04 09:30:48;;;;;;;0.77;0.60;;;6.40;99.90;;;7.97;100.00;-20899.22;4974083;28;20184;-68
2021/04/04 09:33:20;;;;;;;0.70;0.60;;;6.40;99.90;;;8.04;100.00;-20901.03;4974589;28;20467;-67
2021/04/04 09:35:57;;;;;;;0.70;0.50;;;6.40;99.90;;;7.87;100.00;-20896.31;4972931;28;20468;-69
2021/04/04 09:38:30;;;;;;;0.70;0.50;;;6.40;99.90;;;8.23;100.00;-20906.31;4974774;28;20575;-67
2021/04/04 09:41:00;;;;;;;0.70;0.60;;;6.40;99.90;;;8.27;100.00;-20907.28;4973189;28;20466;-69
2021/04/04 09:43:27;;;;;;;0.80;0.70;;;6.30;99.90;;;7.99;100.00;-20899.66;4973726;28;20458;-67
2021/04/04 09:46:04;;;;;;;0.80;0.70;;;6.40;99.90;;;8.15;100.00;-20903.94;4973289;28;20556;-67
2021/04/04 09:48:38;;;;;;;0.80;0.67;;;6.40;99.90;;;8.02;100.00;-20900.34;4971397;28;20439;-67
2021/04/04 09:51:08;;;;;;;0.80;0.70;;;6.60;99.90;;;8.02;100.00;-20900.47;4973151;28;20444;-67
2021/04/04 09:53:40;;;;;;;1.07;0.67;;;6.50;99.90;;;8.02;100.00;-20900.34;4971721;28;20196;-67
2021/04/04 09:56:10;;;;;;;0.70;0.60;;;6.60;99.90;;;8.38;100.00;-20910.19;4972383;28;20482;-67
2021/04/04 09:58:42;;;;;;;0.70;0.60;;;6.60;99.90;;;8.39;100.00;-20910.47;4971645;28;20586;-68
2021/04/04 10:01:19;;;;;;;0.70;0.70;;;6.60;99.90;;;8.56;100.00;-20915.19;4971598;28;20471;-66
2021/04/04 10:04:03;;;;;;;2.65;1.05;;;6.60;99.90;;;8.39;100.00;-20910.47;4973545;28;20423;-66
2021/04/04 10:06:32;;;;;;;0.70;0.60;;;6.70;99.90;;;8.52;100.00;-20914.09;4971745;28;20198;-67
2021/04/04 10:09:03;;;;;;;0.70;0.60;;;6.60;99.90;;;8.16;100.00;-20904.38;4972636;28;20184;-67
2021/04/04 10:11:32;;;;;;;1.00;0.97;;;6.60;99.90;;;8.52;100.00;-20913.94;4974725;28;20524;-67
2021/04/04 10:14:08;;;;;;;0.70;0.53;;;6.60;99.90;;;8.38;100.00;-20910.19;4975030;28;20431;-67
2021/04/04 10:16:35;;;;;;;0.80;0.70;;;6.50;99.90;;;8.29;100.00;-20907.69;4974590;28;20431;-67
2021/04/04 10:19:06;;;;;;;0.70;0.60;;;6.70;99.90;;;8.15;100.00;-20903.94;4974803;28;20500;-66
2021/04/04 10:21:36;;;;;;;0.70;0.60;;;6.80;99.90;;;8.53;100.00;-20914.22;4973894;28;20430;-67
2021/04/04 10:24:26;;;;;;;0.70;0.60;;;6.80;99.90;;;8.40;100.00;-20910.88;4972181;28;20440;-67
2021/04/04 10:27:20;;;;;;;0.70;0.60;;;6.80;99.90;;;8.58;100.00;-20915.75;4975341;28;20466;-67
2021/04/04 10:29:49;;;;;;;0.70;0.60;;;6.80;99.90;;;8.60;100.00;-20916.28;4974252;28;20458;-66
2021/04/04 10:32:25;;;;;;;0.70;0.50;;;6.80;99.90;;;8.75;100.00;-20920.31;4973509;28;20499;-67
2021/04/04 10:34:53;;;;;;;2.10;1.73;;;6.70;99.90;;;8.84;100.00;-20922.69;4973022;28;20449;-66
2021/04/04 10:37:25;;;;;;;0.73;0.60;;;6.70;99.90;;;8.83;100.00;-20922.53;4974586;28;20822;-67
2021/04/04 10:39:57;;;;;;;0.70;0.60;;;6.80;99.90;;;8.77;100.00;-20920.75;4973745;28;20482;-67
2021/04/04 10:42:25;;;;;;;0.70;0.60;;;6.90;99.90;;;8.91;100.00;-20924.63;4989110;28;20451;-66
2021/04/04 10:45:11;;;;;;;0.70;0.60;;;6.90;99.90;;;8.78;100.00;-20921.16;4972453;28;20465;-69
2021/04/04 10:47:40;;;;;;;0.70;0.60;;;7.00;99.90;;;8.48;100.00;-20912.97;4974199;28;20446;-68
2021/04/04 10:50:11;;;;;;;0.70;0.60;;;7.10;99.90;;;8.91;100.00;-20924.63;4974714;28;20499;-69